sensor_id;sensor_type;location;lat;lon;timestamp;P1;durP1;ratioP1;P2;durP2;ratioP2
51560;SDS011;37654;51.262;17.058;2023-04-03T00:01:22;10.68;;;3.58;;
51560;SDS011;37654;51.262;17.058;2023-04-03T00:03:48;10.52;;;2.97;;
51560;SDS011;37654;51.262;17.058;2023-04-03T00:06:13;9.38;;;3.08;;
51560;SDS011;37654;51.262;17.058;2023-04-03T00:08:39;16.63;;;4.65;;
51560;SDS011;37654;51.262;17.058;2023-04-03T00:11:05;12.18;;;2.78;;
51560;SDS011;37654;51.262;17.058;2023-04-03T00:13:32;12.15;;;3.20;;
51560;SDS011;37654;51.262;17.058;2023-04-03T00:15:58;7.20;;;2.47;;
51560;SDS011;37654;51.262;17.058;2023-04-03T00:18:23;9.30;;;2.78;;
51560;SDS011;37654;51.262;17.058;2023-04-03T00:20:49;15.85;;;2.75;;
51560;SDS011;37654;51.262;17.058;2023-04-03T00:23:15;9.50;;;2.85;;
51560;SDS011;37654;51.262;17.058;2023-04-03T00:25:41;11.85;;;3.67;;
51560;SDS011;37654;51.262;17.058;2023-04-03T00:28:07;11.63;;;3.33;;
51560;SDS011;37654;51.262;17.058;2023-04-03T00:30:33;9.30;;;3.05;;
51560;SDS011;37654;51.262;17.058;2023-04-03T00:32:59;11.35;;;3.00;;
51560;SDS011;37654;51.262;17.058;2023-04-03T00:35:25;10.82;;;2.58;;
51560;SDS011;37654;51.262;17.058;2023-04-03T00:37:51;7.82;;;3.03;;
51560;SDS011;37654;51.262;17.058;2023-04-03T00:40:18;16.27;;;2.55;;
51560;SDS011;37654;51.262;17.058;2023-04-03T00:42:45;12.23;;;3.42;;
51560;SDS011;37654;51.262;17.058;2023-04-03T00:47:38;12.40;;;3.13;;
51560;SDS011;37654;51.262;17.058;2023-04-03T00:50:06;8.65;;;2.33;;
51560;SDS011;37654;51.262;17.058;2023-04-03T00:52:32;8.38;;;2.33;;
51560;SDS011;37654;51.262;17.058;2023-04-03T00:54:58;10.82;;;2.60;;
51560;SDS011;37654;51.262;17.058;2023-04-03T00:57:27;16.42;;;2.95;;
51560;SDS011;37654;51.262;17.058;2023-04-03T00:59:55;7.32;;;1.70;;
51560;SDS011;37654;51.262;17.058;2023-04-03T01:02:24;4.57;;;2.00;;
51560;SDS011;37654;51.262;17.058;2023-04-03T01:04:51;7.50;;;2.45;;
51560;SDS011;37654;51.262;17.058;2023-04-03T01:07:17;8.98;;;2.05;;
51560;SDS011;37654;51.262;17.058;2023-04-03T01:09:47;8.43;;;2.33;;
51560;SDS011;37654;51.262;17.058;2023-04-03T01:14:53;11.27;;;2.50;;
51560;SDS011;37654;51.262;17.058;2023-04-03T01:22:42;10.43;;;2.90;;
51560;SDS011;37654;51.262;17.058;2023-04-03T01:25:11;10.27;;;2.15;;
51560;SDS011;37654;51.262;17.058;2023-04-03T01:27:36;6.88;;;1.90;;
51560;SDS011;37654;51.262;17.058;2023-04-03T01:30:02;7.95;;;2.72;;
51560;SDS011;37654;51.262;17.058;2023-04-03T01:32:28;13.75;;;2.53;;
51560;SDS011;37654;51.262;17.058;2023-04-03T01:34:53;11.25;;;2.55;;
51560;SDS011;37654;51.262;17.058;2023-04-03T01:37:19;12.80;;;3.55;;
51560;SDS011;37654;51.262;17.058;2023-04-03T01:39:44;5.78;;;2.10;;
51560;SDS011;37654;51.262;17.058;2023-04-03T01:42:10;6.68;;;2.25;;
51560;SDS011;37654;51.262;17.058;2023-04-03T01:44:36;11.23;;;2.35;;
51560;SDS011;37654;51.262;17.058;2023-04-03T01:47:01;9.82;;;2.38;;
51560;SDS011;37654;51.262;17.058;2023-04-03T01:49:27;12.73;;;2.90;;
51560;SDS011;37654;51.262;17.058;2023-04-03T01:51:53;10.45;;;2.42;;
51560;SDS011;37654;51.262;17.058;2023-04-03T01:54:18;13.77;;;3.25;;
51560;SDS011;37654;51.262;17.058;2023-04-03T01:56:43;6.95;;;2.22;;
51560;SDS011;37654;51.262;17.058;2023-04-03T01:59:09;11.35;;;2.38;;
51560;SDS011;37654;51.262;17.058;2023-04-03T02:01:34;8.48;;;2.35;;
51560;SDS011;37654;51.262;17.058;2023-04-03T02:04:00;11.20;;;2.83;;
51560;SDS011;37654;51.262;17.058;2023-04-03T02:06:25;12.65;;;2.70;;
51560;SDS011;37654;51.262;17.058;2023-04-03T02:08:51;9.05;;;2.58;;
51560;SDS011;37654;51.262;17.058;2023-04-03T02:11:16;9.80;;;3.20;;
51560;SDS011;37654;51.262;17.058;2023-04-03T02:13:41;9.18;;;2.85;;
51560;SDS011;37654;51.262;17.058;2023-04-03T02:16:10;10.57;;;2.90;;
51560;SDS011;37654;51.262;17.058;2023-04-03T02:18:37;10.43;;;2.80;;
51560;SDS011;37654;51.262;17.058;2023-04-03T02:21:03;7.60;;;2.42;;
51560;SDS011;37654;51.262;17.058;2023-04-03T02:23:29;14.15;;;2.90;;
51560;SDS011;37654;51.262;17.058;2023-04-03T02:26:02;9.52;;;2.47;;
51560;SDS011;37654;51.262;17.058;2023-04-03T02:28:33;13.18;;;3.38;;
51560;SDS011;37654;51.262;17.058;2023-04-03T02:30:59;13.65;;;3.03;;
51560;SDS011;37654;51.262;17.058;2023-04-03T02:33:25;8.80;;;2.70;;
51560;SDS011;37654;51.262;17.058;2023-04-03T02:35:56;14.95;;;3.03;;
51560;SDS011;37654;51.262;17.058;2023-04-03T02:38:23;15.35;;;3.58;;
51560;SDS011;37654;51.262;17.058;2023-04-03T02:40:48;15.15;;;3.67;;
51560;SDS011;37654;51.262;17.058;2023-04-03T02:43:14;14.63;;;2.88;;
51560;SDS011;37654;51.262;17.058;2023-04-03T02:45:39;11.73;;;2.88;;
51560;SDS011;37654;51.262;17.058;2023-04-03T02:48:05;13.18;;;2.88;;
51560;SDS011;37654;51.262;17.058;2023-04-03T02:50:31;12.75;;;3.20;;
51560;SDS011;37654;51.262;17.058;2023-04-03T02:52:56;13.00;;;3.47;;
51560;SDS011;37654;51.262;17.058;2023-04-03T02:55:22;21.77;;;3.50;;
51560;SDS011;37654;51.262;17.058;2023-04-03T02:57:47;9.93;;;3.60;;
51560;SDS011;37654;51.262;17.058;2023-04-03T03:00:13;13.77;;;3.28;;
51560;SDS011;37654;51.262;17.058;2023-04-03T03:02:39;12.90;;;2.75;;
51560;SDS011;37654;51.262;17.058;2023-04-03T03:05:05;12.15;;;2.78;;
51560;SDS011;37654;51.262;17.058;2023-04-03T03:07:31;11.02;;;3.42;;
51560;SDS011;37654;51.262;17.058;2023-04-03T03:09:57;13.18;;;3.05;;
51560;SDS011;37654;51.262;17.058;2023-04-03T03:12:22;14.13;;;3.33;;
51560;SDS011;37654;51.262;17.058;2023-04-03T03:14:49;11.30;;;2.70;;
51560;SDS011;37654;51.262;17.058;2023-04-03T03:17:14;12.15;;;3.38;;
51560;SDS011;37654;51.262;17.058;2023-04-03T03:19:40;15.73;;;3.53;;
51560;SDS011;37654;51.262;17.058;2023-04-03T03:22:05;10.57;;;2.60;;
51560;SDS011;37654;51.262;17.058;2023-04-03T03:24:30;8.02;;;2.97;;
51560;SDS011;37654;51.262;17.058;2023-04-03T03:26:56;16.40;;;3.10;;
51560;SDS011;37654;51.262;17.058;2023-04-03T03:29:21;10.57;;;2.97;;
51560;SDS011;37654;51.262;17.058;2023-04-03T03:31:47;11.38;;;3.30;;
51560;SDS011;37654;51.262;17.058;2023-04-03T03:34:12;10.68;;;3.40;;
51560;SDS011;37654;51.262;17.058;2023-04-03T03:36:38;11.38;;;3.17;;
51560;SDS011;37654;51.262;17.058;2023-04-03T03:39:04;16.20;;;4.57;;
51560;SDS011;37654;51.262;17.058;2023-04-03T03:41:30;17.70;;;4.57;;
51560;SDS011;37654;51.262;17.058;2023-04-03T03:43:56;12.18;;;3.08;;
51560;SDS011;37654;51.262;17.058;2023-04-03T03:46:21;8.15;;;2.63;;
51560;SDS011;37654;51.262;17.058;2023-04-03T03:48:47;13.65;;;3.55;;
51560;SDS011;37654;51.262;17.058;2023-04-03T03:51:12;11.50;;;4.00;;
51560;SDS011;37654;51.262;17.058;2023-04-03T03:53:38;17.65;;;3.50;;
51560;SDS011;37654;51.262;17.058;2023-04-03T03:56:03;10.82;;;3.00;;
51560;SDS011;37654;51.262;17.058;2023-04-03T03:58:29;11.18;;;3.10;;
51560;SDS011;37654;51.262;17.058;2023-04-03T04:00:55;9.98;;;3.33;;
51560;SDS011;37654;51.262;17.058;2023-04-03T04:03:20;13.60;;;2.67;;
51560;SDS011;37654;51.262;17.058;2023-04-03T04:05:46;12.13;;;3.15;;
51560;SDS011;37654;51.262;17.058;2023-04-03T04:08:12;9.07;;;2.92;;
51560;SDS011;37654;51.262;17.058;2023-04-03T04:10:37;16.83;;;3.75;;
51560;SDS011;37654;51.262;17.058;2023-04-03T04:13:03;12.32;;;2.95;;
51560;SDS011;37654;51.262;17.058;2023-04-03T04:15:28;12.70;;;3.42;;
51560;SDS011;37654;51.262;17.058;2023-04-03T04:17:54;9.90;;;3.22;;
51560;SDS011;37654;51.262;17.058;2023-04-03T04:20:20;12.70;;;3.00;;
51560;SDS011;37654;51.262;17.058;2023-04-03T04:22:45;13.93;;;3.35;;
51560;SDS011;37654;51.262;17.058;2023-04-03T04:25:11;18.13;;;3.88;;
51560;SDS011;37654;51.262;17.058;2023-04-03T04:27:37;9.65;;;3.20;;
51560;SDS011;37654;51.262;17.058;2023-04-03T04:30:03;11.98;;;3.05;;
51560;SDS011;37654;51.262;17.058;2023-04-03T04:32:29;18.27;;;3.35;;
51560;SDS011;37654;51.262;17.058;2023-04-03T04:34:55;22.83;;;4.28;;
51560;SDS011;37654;51.262;17.058;2023-04-03T04:37:20;13.18;;;3.83;;
51560;SDS011;37654;51.262;17.058;2023-04-03T04:39:45;21.33;;;4.68;;
51560;SDS011;37654;51.262;17.058;2023-04-03T04:42:11;15.48;;;3.20;;
51560;SDS011;37654;51.262;17.058;2023-04-03T04:44:38;15.60;;;3.15;;
51560;SDS011;37654;51.262;17.058;2023-04-03T04:47:04;17.30;;;3.08;;
51560;SDS011;37654;51.262;17.058;2023-04-03T04:49:30;19.38;;;3.10;;
51560;SDS011;37654;51.262;17.058;2023-04-03T04:51:55;18.20;;;4.97;;
51560;SDS011;37654;51.262;17.058;2023-04-03T04:54:21;14.38;;;3.25;;
51560;SDS011;37654;51.262;17.058;2023-04-03T04:56:46;18.58;;;3.78;;
51560;SDS011;37654;51.262;17.058;2023-04-03T04:59:11;11.48;;;3.47;;
51560;SDS011;37654;51.262;17.058;2023-04-03T05:01:37;10.52;;;3.13;;
51560;SDS011;37654;51.262;17.058;2023-04-03T05:04:02;17.00;;;4.45;;
51560;SDS011;37654;51.262;17.058;2023-04-03T05:06:28;15.18;;;3.97;;
51560;SDS011;37654;51.262;17.058;2023-04-03T05:08:55;13.50;;;3.45;;
51560;SDS011;37654;51.262;17.058;2023-04-03T05:11:20;12.82;;;3.38;;
51560;SDS011;37654;51.262;17.058;2023-04-03T05:13:46;10.98;;;3.40;;
51560;SDS011;37654;51.262;17.058;2023-04-03T05:16:11;18.88;;;3.83;;
51560;SDS011;37654;51.262;17.058;2023-04-03T05:18:37;10.55;;;3.22;;
51560;SDS011;37654;51.262;17.058;2023-04-03T05:21:02;15.95;;;4.88;;
51560;SDS011;37654;51.262;17.058;2023-04-03T05:23:28;12.82;;;3.33;;
51560;SDS011;37654;51.262;17.058;2023-04-03T05:25:53;9.00;;;2.65;;
51560;SDS011;37654;51.262;17.058;2023-04-03T05:28:19;10.82;;;2.75;;
51560;SDS011;37654;51.262;17.058;2023-04-03T05:30:44;8.52;;;2.72;;
51560;SDS011;37654;51.262;17.058;2023-04-03T05:33:10;10.60;;;3.60;;
51560;SDS011;37654;51.262;17.058;2023-04-03T05:35:36;11.98;;;3.33;;
51560;SDS011;37654;51.262;17.058;2023-04-03T05:38:05;9.10;;;2.97;;
51560;SDS011;37654;51.262;17.058;2023-04-03T05:40:30;14.02;;;3.22;;
51560;SDS011;37654;51.262;17.058;2023-04-03T05:42:56;19.52;;;4.32;;
51560;SDS011;37654;51.262;17.058;2023-04-03T05:45:21;13.65;;;3.13;;
51560;SDS011;37654;51.262;17.058;2023-04-03T05:47:47;11.32;;;3.08;;
51560;SDS011;37654;51.262;17.058;2023-04-03T05:50:12;18.88;;;3.60;;
51560;SDS011;37654;51.262;17.058;2023-04-03T05:52:38;12.02;;;3.28;;
51560;SDS011;37654;51.262;17.058;2023-04-03T05:55:07;10.90;;;2.70;;
51560;SDS011;37654;51.262;17.058;2023-04-03T05:57:33;11.75;;;3.05;;
51560;SDS011;37654;51.262;17.058;2023-04-03T05:59:58;12.60;;;2.70;;
51560;SDS011;37654;51.262;17.058;2023-04-03T06:02:24;9.07;;;2.78;;
51560;SDS011;37654;51.262;17.058;2023-04-03T06:04:51;10.70;;;3.55;;
51560;SDS011;37654;51.262;17.058;2023-04-03T06:07:20;9.48;;;2.70;;
51560;SDS011;37654;51.262;17.058;2023-04-03T06:09:48;9.70;;;3.08;;
51560;SDS011;37654;51.262;17.058;2023-04-03T06:12:16;10.63;;;3.13;;
51560;SDS011;37654;51.262;17.058;2023-04-03T06:14:42;14.13;;;3.03;;
51560;SDS011;37654;51.262;17.058;2023-04-03T06:17:07;11.77;;;3.15;;
51560;SDS011;37654;51.262;17.058;2023-04-03T06:19:34;12.00;;;3.63;;
51560;SDS011;37654;51.262;17.058;2023-04-03T06:22:00;8.60;;;2.97;;
51560;SDS011;37654;51.262;17.058;2023-04-03T06:24:25;10.75;;;3.03;;
51560;SDS011;37654;51.262;17.058;2023-04-03T06:26:51;7.13;;;2.45;;
51560;SDS011;37654;51.262;17.058;2023-04-03T06:29:17;11.68;;;3.55;;
51560;SDS011;37654;51.262;17.058;2023-04-03T06:31:43;10.15;;;3.08;;
51560;SDS011;37654;51.262;17.058;2023-04-03T06:34:09;6.80;;;2.63;;
51560;SDS011;37654;51.262;17.058;2023-04-03T06:36:36;10.80;;;3.10;;
51560;SDS011;37654;51.262;17.058;2023-04-03T06:39:01;9.65;;;3.72;;
51560;SDS011;37654;51.262;17.058;2023-04-03T06:41:28;9.98;;;3.15;;
51560;SDS011;37654;51.262;17.058;2023-04-03T06:43:53;13.60;;;2.60;;
51560;SDS011;37654;51.262;17.058;2023-04-03T06:46:21;8.55;;;3.20;;
51560;SDS011;37654;51.262;17.058;2023-04-03T06:48:47;10.98;;;2.97;;
51560;SDS011;37654;51.262;17.058;2023-04-03T06:51:31;14.05;;;3.72;;
51560;SDS011;37654;51.262;17.058;2023-04-03T06:53:58;9.13;;;3.67;;
51560;SDS011;37654;51.262;17.058;2023-04-03T06:56:24;10.93;;;3.30;;
51560;SDS011;37654;51.262;17.058;2023-04-03T06:58:51;11.93;;;3.47;;
51560;SDS011;37654;51.262;17.058;2023-04-03T07:01:20;9.30;;;2.75;;
51560;SDS011;37654;51.262;17.058;2023-04-03T07:03:46;8.73;;;4.03;;
51560;SDS011;37654;51.262;17.058;2023-04-03T07:06:13;11.35;;;3.00;;
51560;SDS011;37654;51.262;17.058;2023-04-03T07:08:40;8.30;;;3.42;;
51560;SDS011;37654;51.262;17.058;2023-04-03T07:11:07;12.60;;;3.22;;
51560;SDS011;37654;51.262;17.058;2023-04-03T07:13:33;8.10;;;2.80;;
51560;SDS011;37654;51.262;17.058;2023-04-03T07:15:58;13.95;;;3.63;;
51560;SDS011;37654;51.262;17.058;2023-04-03T07:18:24;12.27;;;3.17;;
51560;SDS011;37654;51.262;17.058;2023-04-03T07:20:50;9.20;;;2.72;;
51560;SDS011;37654;51.262;17.058;2023-04-03T07:23:16;8.82;;;2.92;;
51560;SDS011;37654;51.262;17.058;2023-04-03T07:25:43;8.90;;;2.65;;
51560;SDS011;37654;51.262;17.058;2023-04-03T07:28:09;8.00;;;2.58;;
51560;SDS011;37654;51.262;17.058;2023-04-03T07:30:34;6.25;;;2.45;;
51560;SDS011;37654;51.262;17.058;2023-04-03T07:33:07;8.32;;;3.38;;
51560;SDS011;37654;51.262;17.058;2023-04-03T07:35:32;6.82;;;2.50;;
51560;SDS011;37654;51.262;17.058;2023-04-03T07:37:58;8.90;;;2.70;;
51560;SDS011;37654;51.262;17.058;2023-04-03T07:40:23;9.88;;;3.05;;
51560;SDS011;37654;51.262;17.058;2023-04-03T07:42:48;10.40;;;2.53;;
51560;SDS011;37654;51.262;17.058;2023-04-03T07:45:15;6.57;;;2.08;;
51560;SDS011;37654;51.262;17.058;2023-04-03T07:47:42;7.38;;;3.00;;
51560;SDS011;37654;51.262;17.058;2023-04-03T07:50:07;10.43;;;2.38;;
51560;SDS011;37654;51.262;17.058;2023-04-03T07:52:33;6.15;;;2.40;;
51560;SDS011;37654;51.262;17.058;2023-04-03T07:54:59;4.38;;;1.60;;
51560;SDS011;37654;51.262;17.058;2023-04-03T07:57:24;4.30;;;1.80;;
51560;SDS011;37654;51.262;17.058;2023-04-03T07:59:50;5.97;;;2.38;;
51560;SDS011;37654;51.262;17.058;2023-04-03T08:02:15;6.45;;;2.70;;
51560;SDS011;37654;51.262;17.058;2023-04-03T08:04:40;4.47;;;2.28;;
51560;SDS011;37654;51.262;17.058;2023-04-03T08:07:06;5.90;;;1.90;;
51560;SDS011;37654;51.262;17.058;2023-04-03T08:09:31;6.40;;;2.60;;
51560;SDS011;37654;51.262;17.058;2023-04-03T08:11:57;5.10;;;2.42;;
51560;SDS011;37654;51.262;17.058;2023-04-03T08:14:23;9.13;;;2.58;;
51560;SDS011;37654;51.262;17.058;2023-04-03T08:16:49;7.88;;;2.40;;
51560;SDS011;37654;51.262;17.058;2023-04-03T08:19:14;7.13;;;2.70;;
51560;SDS011;37654;51.262;17.058;2023-04-03T08:21:42;5.47;;;2.33;;
51560;SDS011;37654;51.262;17.058;2023-04-03T08:24:08;5.50;;;2.78;;
51560;SDS011;37654;51.262;17.058;2023-04-03T08:26:34;6.43;;;2.25;;
51560;SDS011;37654;51.262;17.058;2023-04-03T08:29:00;5.50;;;2.13;;
51560;SDS011;37654;51.262;17.058;2023-04-03T08:31:25;8.27;;;2.15;;
51560;SDS011;37654;51.262;17.058;2023-04-03T08:33:51;5.13;;;2.05;;
51560;SDS011;37654;51.262;17.058;2023-04-03T08:36:18;5.75;;;2.45;;
51560;SDS011;37654;51.262;17.058;2023-04-03T08:38:46;7.10;;;2.13;;
51560;SDS011;37654;51.262;17.058;2023-04-03T08:41:16;5.07;;;1.60;;
51560;SDS011;37654;51.262;17.058;2023-04-03T08:44:35;4.28;;;1.90;;
51560;SDS011;37654;51.262;17.058;2023-04-03T08:49:42;4.03;;;2.30;;
51560;SDS011;37654;51.262;17.058;2023-04-03T08:52:16;4.72;;;2.00;;
51560;SDS011;37654;51.262;17.058;2023-04-03T08:54:49;5.25;;;1.90;;
51560;SDS011;37654;51.262;17.058;2023-04-03T08:57:17;3.83;;;1.88;;
51560;SDS011;37654;51.262;17.058;2023-04-03T08:59:49;5.95;;;2.25;;
51560;SDS011;37654;51.262;17.058;2023-04-03T09:02:22;8.25;;;3.00;;
51560;SDS011;37654;51.262;17.058;2023-04-03T09:04:51;8.95;;;3.13;;
51560;SDS011;37654;51.262;17.058;2023-04-03T09:07:21;5.60;;;1.80;;
51560;SDS011;37654;51.262;17.058;2023-04-03T09:09:54;2.47;;;1.30;;
51560;SDS011;37654;51.262;17.058;2023-04-03T09:12:25;4.15;;;2.53;;
51560;SDS011;37654;51.262;17.058;2023-04-03T09:20:16;5.43;;;2.45;;
51560;SDS011;37654;51.262;17.058;2023-04-03T09:22:56;4.70;;;1.73;;
51560;SDS011;37654;51.262;17.058;2023-04-03T09:25:27;5.68;;;2.38;;
51560;SDS011;37654;51.262;17.058;2023-04-03T09:30:25;8.77;;;2.00;;
51560;SDS011;37654;51.262;17.058;2023-04-03T09:32:52;4.45;;;1.70;;
51560;SDS011;37654;51.262;17.058;2023-04-03T09:35:26;3.08;;;1.50;;
51560;SDS011;37654;51.262;17.058;2023-04-03T09:37:54;2.67;;;1.40;;
51560;SDS011;37654;51.262;17.058;2023-04-03T09:42:50;4.18;;;1.73;;
51560;SDS011;37654;51.262;17.058;2023-04-03T09:45:23;8.00;;;2.20;;
51560;SDS011;37654;51.262;17.058;2023-04-03T09:48:07;3.75;;;1.80;;
51560;SDS011;37654;51.262;17.058;2023-04-03T09:58:43;4.63;;;2.45;;
51560;SDS011;37654;51.262;17.058;2023-04-03T10:06:44;7.13;;;2.08;;
51560;SDS011;37654;51.262;17.058;2023-04-03T10:14:54;5.60;;;2.03;;
51560;SDS011;37654;51.262;17.058;2023-04-03T10:38:46;6.28;;;2.72;;
51560;SDS011;37654;51.262;17.058;2023-04-03T10:44:16;5.00;;;2.28;;
51560;SDS011;37654;51.262;17.058;2023-04-03T10:46:53;6.15;;;2.05;;
51560;SDS011;37654;51.262;17.058;2023-04-03T10:52:04;7.10;;;2.80;;
51560;SDS011;37654;51.262;17.058;2023-04-03T10:57:23;4.47;;;1.70;;
51560;SDS011;37654;51.262;17.058;2023-04-03T10:59:53;3.97;;;1.83;;
51560;SDS011;37654;51.262;17.058;2023-04-03T11:02:31;3.15;;;1.83;;
51560;SDS011;37654;51.262;17.058;2023-04-03T11:05:15;3.35;;;1.98;;
51560;SDS011;37654;51.262;17.058;2023-04-03T11:08:04;3.35;;;1.90;;
51560;SDS011;37654;51.262;17.058;2023-04-03T11:10:42;4.80;;;2.05;;
51560;SDS011;37654;51.262;17.058;2023-04-03T11:15:41;6.43;;;2.47;;
51560;SDS011;37654;51.262;17.058;2023-04-03T11:18:10;5.03;;;2.00;;
51560;SDS011;37654;51.262;17.058;2023-04-03T11:20:46;4.00;;;2.13;;
51560;SDS011;37654;51.262;17.058;2023-04-03T11:25:46;3.58;;;1.92;;
51560;SDS011;37654;51.262;17.058;2023-04-03T11:28:17;4.93;;;2.22;;
51560;SDS011;37654;51.262;17.058;2023-04-03T11:36:12;8.32;;;2.70;;
51560;SDS011;37654;51.262;17.058;2023-04-03T11:38:44;4.38;;;1.95;;
51560;SDS011;37654;51.262;17.058;2023-04-03T11:41:12;5.60;;;1.77;;
51560;SDS011;37654;51.262;17.058;2023-04-03T11:43:42;5.03;;;1.70;;
51560;SDS011;37654;51.262;17.058;2023-04-03T11:46:22;3.95;;;1.60;;
51560;SDS011;37654;51.262;17.058;2023-04-03T11:48:48;15.82;;;2.05;;
51560;SDS011;37654;51.262;17.058;2023-04-03T11:53:45;3.47;;;1.42;;
51560;SDS011;37654;51.262;17.058;2023-04-03T12:04:19;10.50;;;2.30;;
51560;SDS011;37654;51.262;17.058;2023-04-03T12:09:56;6.38;;;2.70;;
51560;SDS011;37654;51.262;17.058;2023-04-03T12:17:44;4.35;;;1.58;;
51560;SDS011;37654;51.262;17.058;2023-04-03T12:23:25;4.68;;;1.80;;
51560;SDS011;37654;51.262;17.058;2023-04-03T12:26:30;5.93;;;1.98;;
51560;SDS011;37654;51.262;17.058;2023-04-03T12:28:51;2.42;;;1.55;;
51560;SDS011;37654;51.262;17.058;2023-04-03T12:31:18;6.43;;;2.22;;
51560;SDS011;37654;51.262;17.058;2023-04-03T12:33:50;6.95;;;2.10;;
51560;SDS011;37654;51.262;17.058;2023-04-03T12:47:02;6.85;;;2.00;;
51560;SDS011;37654;51.262;17.058;2023-04-03T12:49:44;4.70;;;2.17;;
51560;SDS011;37654;51.262;17.058;2023-04-03T12:54:56;5.97;;;1.80;;
51560;SDS011;37654;51.262;17.058;2023-04-03T12:57:25;3.65;;;2.10;;
51560;SDS011;37654;51.262;17.058;2023-04-03T12:59:52;4.05;;;1.73;;
51560;SDS011;37654;51.262;17.058;2023-04-03T13:04:59;6.47;;;2.00;;
51560;SDS011;37654;51.262;17.058;2023-04-03T13:07:35;9.80;;;2.58;;
51560;SDS011;37654;51.262;17.058;2023-04-03T13:12:52;2.50;;;1.38;;
51560;SDS011;37654;51.262;17.058;2023-04-03T13:15:27;6.18;;;2.22;;
51560;SDS011;37654;51.262;17.058;2023-04-03T13:18:04;4.20;;;1.73;;
51560;SDS011;37654;51.262;17.058;2023-04-03T13:20:31;13.38;;;1.70;;
51560;SDS011;37654;51.262;17.058;2023-04-03T13:23:07;6.20;;;3.45;;
51560;SDS011;37654;51.262;17.058;2023-04-03T13:25:39;4.75;;;2.10;;
51560;SDS011;37654;51.262;17.058;2023-04-03T13:28:07;3.90;;;1.77;;
51560;SDS011;37654;51.262;17.058;2023-04-03T13:30:37;3.13;;;1.65;;
51560;SDS011;37654;51.262;17.058;2023-04-03T13:33:06;3.70;;;1.52;;
51560;SDS011;37654;51.262;17.058;2023-04-03T13:35:45;7.85;;;1.70;;
51560;SDS011;37654;51.262;17.058;2023-04-03T13:43:47;5.75;;;1.50;;
51560;SDS011;37654;51.262;17.058;2023-04-03T13:51:12;4.40;;;1.95;;
51560;SDS011;37654;51.262;17.058;2023-04-03T13:53:45;2.35;;;1.42;;
51560;SDS011;37654;51.262;17.058;2023-04-03T13:56:32;2.83;;;1.73;;
51560;SDS011;37654;51.262;17.058;2023-04-03T14:01:44;4.63;;;1.88;;
51560;SDS011;37654;51.262;17.058;2023-04-03T14:04:23;8.55;;;2.28;;
51560;SDS011;37654;51.262;17.058;2023-04-03T14:06:52;3.75;;;1.75;;
51560;SDS011;37654;51.262;17.058;2023-04-03T14:09:18;7.60;;;2.08;;
51560;SDS011;37654;51.262;17.058;2023-04-03T14:11:46;6.25;;;2.38;;
51560;SDS011;37654;51.262;17.058;2023-04-03T14:14:14;4.90;;;2.22;;
51560;SDS011;37654;51.262;17.058;2023-04-03T14:16:44;6.07;;;2.10;;
51560;SDS011;37654;51.262;17.058;2023-04-03T14:19:20;3.53;;;1.60;;
51560;SDS011;37654;51.262;17.058;2023-04-03T14:21:54;4.93;;;1.70;;
51560;SDS011;37654;51.262;17.058;2023-04-03T14:24:21;2.53;;;1.40;;
51560;SDS011;37654;51.262;17.058;2023-04-03T14:26:48;4.40;;;1.50;;
51560;SDS011;37654;51.262;17.058;2023-04-03T14:29:15;3.88;;;1.80;;
51560;SDS011;37654;51.262;17.058;2023-04-03T14:31:42;9.65;;;2.75;;
51560;SDS011;37654;51.262;17.058;2023-04-03T14:34:09;6.30;;;2.47;;
51560;SDS011;37654;51.262;17.058;2023-04-03T14:36:36;7.03;;;2.08;;
51560;SDS011;37654;51.262;17.058;2023-04-03T14:39:03;6.15;;;2.63;;
51560;SDS011;37654;51.262;17.058;2023-04-03T14:41:29;5.55;;;2.95;;
51560;SDS011;37654;51.262;17.058;2023-04-03T14:43:55;6.18;;;2.20;;
51560;SDS011;37654;51.262;17.058;2023-04-03T14:48:51;7.32;;;2.15;;
51560;SDS011;37654;51.262;17.058;2023-04-03T14:51:17;6.50;;;2.80;;
51560;SDS011;37654;51.262;17.058;2023-04-03T14:53:43;5.88;;;2.15;;
51560;SDS011;37654;51.262;17.058;2023-04-03T14:56:14;3.78;;;1.70;;
51560;SDS011;37654;51.262;17.058;2023-04-03T14:58:43;7.15;;;2.33;;
51560;SDS011;37654;51.262;17.058;2023-04-03T15:01:11;4.82;;;2.42;;
51560;SDS011;37654;51.262;17.058;2023-04-03T15:03:39;9.82;;;3.33;;
51560;SDS011;37654;51.262;17.058;2023-04-03T15:06:04;7.22;;;2.97;;
51560;SDS011;37654;51.262;17.058;2023-04-03T15:08:30;5.75;;;2.67;;
51560;SDS011;37654;51.262;17.058;2023-04-03T15:10:56;9.98;;;2.60;;
51560;SDS011;37654;51.262;17.058;2023-04-03T15:13:22;3.47;;;1.92;;
51560;SDS011;37654;51.262;17.058;2023-04-03T15:15:48;4.35;;;2.08;;
51560;SDS011;37654;51.262;17.058;2023-04-03T15:18:17;4.38;;;2.45;;
51560;SDS011;37654;51.262;17.058;2023-04-03T15:20:44;6.72;;;2.65;;
51560;SDS011;37654;51.262;17.058;2023-04-03T15:23:12;6.97;;;2.50;;
51560;SDS011;37654;51.262;17.058;2023-04-03T15:25:38;4.57;;;2.28;;
51560;SDS011;37654;51.262;17.058;2023-04-03T15:28:04;5.03;;;2.85;;
51560;SDS011;37654;51.262;17.058;2023-04-03T15:30:30;5.65;;;2.90;;
51560;SDS011;37654;51.262;17.058;2023-04-03T15:32:56;5.93;;;2.75;;
51560;SDS011;37654;51.262;17.058;2023-04-03T15:35:22;10.77;;;2.92;;
51560;SDS011;37654;51.262;17.058;2023-04-03T15:37:47;6.18;;;2.00;;
51560;SDS011;37654;51.262;17.058;2023-04-03T15:40:13;9.07;;;3.35;;
51560;SDS011;37654;51.262;17.058;2023-04-03T15:42:38;9.15;;;3.50;;
51560;SDS011;37654;51.262;17.058;2023-04-03T15:45:05;6.30;;;3.03;;
51560;SDS011;37654;51.262;17.058;2023-04-03T15:47:31;6.20;;;2.22;;
51560;SDS011;37654;51.262;17.058;2023-04-03T15:49:57;7.03;;;2.35;;
51560;SDS011;37654;51.262;17.058;2023-04-03T15:52:23;7.32;;;2.50;;
51560;SDS011;37654;51.262;17.058;2023-04-03T15:54:48;7.28;;;2.55;;
51560;SDS011;37654;51.262;17.058;2023-04-03T15:57:14;5.97;;;2.33;;
51560;SDS011;37654;51.262;17.058;2023-04-03T15:59:39;9.55;;;3.25;;
51560;SDS011;37654;51.262;17.058;2023-04-03T16:02:06;9.32;;;2.65;;
51560;SDS011;37654;51.262;17.058;2023-04-03T16:04:33;8.55;;;2.67;;
51560;SDS011;37654;51.262;17.058;2023-04-03T16:07:02;8.35;;;2.15;;
51560;SDS011;37654;51.262;17.058;2023-04-03T16:09:30;6.53;;;2.50;;
51560;SDS011;37654;51.262;17.058;2023-04-03T16:11:57;7.45;;;3.55;;
51560;SDS011;37654;51.262;17.058;2023-04-03T16:14:23;15.07;;;4.10;;
51560;SDS011;37654;51.262;17.058;2023-04-03T16:16:48;8.82;;;2.90;;
51560;SDS011;37654;51.262;17.058;2023-04-03T16:19:13;6.80;;;3.33;;
51560;SDS011;37654;51.262;17.058;2023-04-03T16:21:39;7.85;;;3.17;;
51560;SDS011;37654;51.262;17.058;2023-04-03T16:24:05;8.98;;;3.30;;
51560;SDS011;37654;51.262;17.058;2023-04-03T16:26:30;7.60;;;4.15;;
51560;SDS011;37654;51.262;17.058;2023-04-03T16:28:56;10.15;;;3.65;;
51560;SDS011;37654;51.262;17.058;2023-04-03T16:31:21;10.20;;;3.70;;
51560;SDS011;37654;51.262;17.058;2023-04-03T16:33:48;9.43;;;3.60;;
51560;SDS011;37654;51.262;17.058;2023-04-03T16:36:14;6.97;;;3.85;;
51560;SDS011;37654;51.262;17.058;2023-04-03T16:38:40;15.38;;;7.00;;
51560;SDS011;37654;51.262;17.058;2023-04-03T16:41:05;6.00;;;2.30;;
51560;SDS011;37654;51.262;17.058;2023-04-03T16:43:31;6.35;;;3.20;;
51560;SDS011;37654;51.262;17.058;2023-04-03T16:45:57;11.48;;;3.30;;
51560;SDS011;37654;51.262;17.058;2023-04-03T16:48:22;8.13;;;3.20;;
51560;SDS011;37654;51.262;17.058;2023-04-03T16:50:48;8.82;;;3.17;;